Yorkville, Illinois
Current Conditions -  °F | °C
As of 5:52 PM on Thursday 18 Dec 2014 (Local Time) from KARR Reporting Station
Overcast Overcast  
Wind Chill: 22°   Ceiling: 2300
Heat Index: 27°   Visibility: 10mi
Dew Point: 19°   Wind: 5mph
Humidity: 72%   Direction: 310°NW
Pressure: 30.26"   Gusts: NA
Location:  41.64°N, 88.45°W
Report Text: KARR 182352Z 31004KT 10SM OVC023 M03/M07 A3026 RMK AO2 SLP256 T10281072 11022 21039 53007
Loading
Personal Weather Stations






























Interactive Weather Map New forecast layout! Learn more

10-Day Weather Forecast

Advertisements
Track Severe Weather on mobile